• Join FlightAware (Why Join?)
  • Login
  • US Flag 
06:38PM EDT


 

Airport Tracker/Info


-or-


 

Live Flight TrackerFlight Track Log ✈ RPA4910 ✈ 12-Jun-2013 ✈ KALB - KIAD

Flight Track Log - Related Links

Times and Time Zones

All times are in EDT time to prevent confusion due to time zone crossing. See the RPA4910 flight status page for this flight to view local times or setup timezone preferences in your user account.

Time Position Orientation Groundspeed Altitude Reporting Facility
EDT Latitude Longitude Course Direction KTS MPH feet Rate Location/Type
08:31PM 42.7694 -73.8089 317° Northwest 176 203 1,200  Level Boston Center
08:32PM 42.8125 -73.8636 317° Northwest 216 249 4,000 2,040 Climbing Boston Center
08:33PM 42.7969 -73.9397 254° West 234 269 5,900 2,100 Climbing Boston Center
08:34PM 42.7811 -74.0242 256° West 234 269 8,300 2,340 Climbing Boston Center
08:35PM 42.7258 -74.0964 224° Southwest 245 282 10,600 2,100 Climbing Boston Center
08:36PM 42.6769 -74.1769 230° Southwest 270 311 12,600 1,860 Climbing Boston Center
08:37PM 42.6297 -74.2547 230° Southwest 270 311 14,400 1,800 Climbing Boston Center
08:38PM 42.5889 -74.3353 235° Southwest 270 311 16,300 1,680 Climbing Boston Center
08:39PM 42.5481 -74.4100 233° Southwest 265 305 17,800 1,380 Climbing Boston Center
08:40PM 42.5175 -74.4794 239° Southwest 260 299 19,100 1,080 Climbing Boston Center
08:41PM 42.4744 -74.5569 233° Southwest 260 299 20,000 420 Climbing Boston Center
08:42PM 42.4289 -74.6453 235° Southwest 272 313 20,000  Level Boston Center
08:43PM 42.3772 -74.7392 233° Southwest 296 341 20,000  Level Boston Center
08:45PM 42.2753 -74.9297 234° Southwest 311 358 20,000  Level New York Center
08:46PM 42.2239 -75.0275 235° Southwest 331 381 20,000  Level New York Center
08:47PM 42.1681 -75.1272 233° Southwest 336 387 20,000  Level New York Center
08:48PM 42.1144 -75.2272 234° Southwest 341 392 20,000  Level New York Center
08:49PM 42.0567 -75.3294 233° Southwest 341 392 20,000  Level New York Center
08:50PM 42.0089 -75.4322 238° Southwest 341 392 20,000 -240 Level New York Center
08:51PM 41.9547 -75.5369 235° Southwest 341 392 19,600 -720 Descending New York Center
08:52PM 41.9006 -75.6392 235° Southwest 341 392 18,600 -1,080 Descending New York Center
08:53PM 41.8197 -75.7306 220° Southwest 346 398 17,500 -1,020 Descending New York Center
08:54PM 41.7542 -75.8033 220° Southwest 346 398 16,600 -720 Descending New York Center
08:55PM 41.6733 -75.8919 219° Southwest 346 398 16,100 -300 Descending New York Center
08:56PM 41.6053 -75.9725 222° Southwest 341 392 16,100  Level New York Center
08:57PM 41.5375 -76.0478 220° Southwest 336 387 16,100  Level New York Center
08:58PM 41.4761 -76.1175 220° Southwest 336 387 16,100 -60 Level New York Center
08:59PM 41.4058 -76.1978 221° Southwest 336 387 16,000 -60 Descending New York Center
09:00PM 41.3244 -76.2878 220° Southwest 336 387 16,000  Level New York Center
09:01PM 41.2497 -76.3703 220° Southwest 341 392 16,000  Level New York Center
09:02PM 41.1839 -76.4447 220° Southwest 346 398 16,000  Level New York Center
09:03PM 41.1089 -76.5292 220° Southwest 346 398 16,000  Level New York Center
09:04PM 41.0272 -76.6214 220° Southwest 346 398 16,000 -540 Level New York Center
09:05PM 40.9542 -76.7058 221° Southwest 351 404 15,000 -960 Descending New York Center
09:06PM 40.8925 -76.7719 219° Southwest 339 390 14,100 -540 Descending New York Center
09:07PM 40.8219 -76.8478 219° Southwest 333 383 14,000 -60 Descending New York Center
09:08PM 40.7242 -76.8886 198° South 333 383 14,000  Level New York Center
09:09PM 40.6417 -76.9114 192° South 343 395 14,000  Level New York Center
09:10PM 40.5419 -76.9461 195° South 343 395 14,000  Level New York Center
09:11PM 40.4528 -76.9736 193° South 338 389 14,000 -120 Level New York Center
09:12PM 40.3617 -77.0036 194° South 338 389 13,800 -780 Descending New York Center
09:13PM 40.2681 -77.0358 195° South 343 395 12,500 -1,260 Descending New York Center
09:14PM 40.1747 -77.0683 195° South 343 395 11,400 -1,260 Descending New York Center
09:15PM 40.0922 -77.0933 193° South 332 382 10,100 -900 Descending New York Center
09:17PM 39.9500 -77.1333 192° South 297 342 9,000 -420 Descending Potomac TRACON
09:18PM 39.8667 -77.1833 205° Southwest 291 335 9,000  Level Potomac TRACON
09:19PM 39.8167 -77.2167 207° Southwest 288 331 9,000 -540 Level Potomac TRACON
09:20PM 39.7333 -77.2667 205° Southwest 289 333 8,000 -1,020 Descending Potomac TRACON
09:21PM 39.6667 -77.3167 210° Southwest 278 320 7,000 -900 Descending Potomac TRACON
09:22PM 39.5833 -77.3333 189° South 272 313 6,200 -480 Descending Potomac TRACON
09:23PM 39.5167 -77.3333 180° South 269 310 6,000 -120 Descending Potomac TRACON
09:24PM 39.4500 -77.3333 180° South 267 307 6,000 -540 Level Potomac TRACON
09:25PM 39.3833 -77.3500 191° South 264 304 5,100 -960 Descending Potomac TRACON
09:26PM 39.3000 -77.3500 180° South 256 295 4,100 -540 Descending Potomac TRACON
09:27PM 39.2333 -77.3500 180° South 255 293 4,000 -60 Descending Potomac TRACON
09:28PM 39.1500 -77.3500 180° South 254 292 4,000  Level Potomac TRACON
09:29PM 39.0833 -77.3500 180° South 252 290 4,000  Level Potomac TRACON
09:30PM 39.0167 -77.3500 180° South 252 290 4,000 -120 Level Potomac TRACON
09:31PM 38.9500 -77.3500 180° South 256 295 3,800 -480 Descending Potomac TRACON
09:32PM 38.8833 -77.3500 180° South 251 289 3,100 -420 Descending Potomac TRACON
09:33PM 38.8167 -77.3667 191° South 214 246 3,000 -120 Descending Potomac TRACON